createdAt,value
2023-05-08T00:02:12.061Z,13.97
2023-05-08T00:05:02.843Z,13.97
2023-05-08T00:07:53.850Z,13.97
2023-05-08T00:10:44.188Z,13.97
2023-05-08T00:13:34.767Z,13.97
2023-05-08T00:16:25.246Z,13.95
2023-05-08T00:19:15.812Z,13.96
2023-05-08T00:22:09.362Z,13.97
2023-05-08T00:25:00.726Z,13.98
2023-05-08T00:27:51.205Z,13.99
2023-05-08T00:30:42.787Z,13.99
2023-05-08T00:33:33.601Z,13.98
2023-05-08T00:36:24.154Z,13.96
2023-05-08T00:39:14.675Z,13.98
2023-05-08T00:42:05.261Z,13.99
2023-05-08T00:44:56.000Z,14.05
2023-05-08T00:47:46.736Z,14.09
2023-05-08T00:50:37.758Z,14.11
2023-05-08T00:53:29.166Z,14.16
2023-05-08T00:56:20.257Z,14.19
2023-05-08T00:59:13.007Z,14.21
2023-05-08T01:02:03.701Z,14.25
2023-05-08T01:04:55.579Z,14.27
2023-05-08T01:07:46.856Z,14.27
2023-05-08T01:10:44.213Z,14.28
2023-05-08T01:13:40.310Z,14.28
2023-05-08T01:16:37.346Z,14.23
2023-05-08T01:19:42.174Z,14.17
2023-05-08T01:22:49.120Z,14.14
2023-05-08T01:25:57.255Z,14.12
2023-05-08T01:29:07.508Z,14.09
2023-05-08T01:32:19.863Z,14.10
2023-05-08T01:35:17.538Z,14.12
2023-05-08T01:38:16.276Z,14.13
2023-05-08T01:41:10.647Z,14.09
2023-05-08T01:44:07.619Z,14.05
2023-05-08T01:46:58.597Z,14.04
2023-05-08T01:49:50.795Z,14.04
2023-05-08T01:52:44.319Z,14.05
2023-05-08T01:55:37.081Z,14.10
2023-05-08T01:58:29.101Z,14.15
2023-05-08T02:01:22.350Z,14.19
2023-05-08T02:04:15.067Z,14.23
2023-05-08T02:07:06.125Z,14.26
2023-05-08T02:09:59.432Z,14.29
2023-05-08T02:12:50.255Z,14.31
2023-05-08T02:15:41.309Z,14.32
2023-05-08T02:18:33.466Z,14.31
2023-05-08T02:21:24.874Z,14.29
2023-05-08T02:24:16.410Z,14.29
2023-05-08T02:27:08.180Z,14.28
2023-05-08T02:29:58.943Z,14.25
2023-05-08T02:32:51.226Z,14.23
2023-05-08T02:35:45.598Z,14.23
2023-05-08T02:38:39.888Z,14.24
2023-05-08T02:41:32.103Z,14.25
2023-05-08T02:44:22.797Z,14.23
2023-05-08T02:47:18.297Z,14.21
2023-05-08T02:50:14.519Z,14.16
2023-05-08T02:53:08.457Z,14.11
2023-05-08T02:56:05.379Z,14.08
2023-05-08T02:58:59.759Z,14.04
2023-05-08T03:01:54.414Z,14.01
2023-05-08T03:04:51.615Z,14.00
2023-05-08T03:07:43.663Z,13.96
2023-05-08T03:10:41.578Z,13.91
2023-05-08T03:13:36.788Z,13.85
2023-05-08T03:16:34.131Z,13.82
2023-05-08T03:19:30.226Z,13.79
2023-05-08T03:22:25.539Z,13.75
2023-05-08T03:25:20.044Z,13.70
2023-05-08T03:28:11.241Z,13.68
2023-05-08T03:31:03.239Z,13.71
2023-05-08T03:33:55.639Z,13.70
2023-05-08T03:36:47.243Z,13.71
2023-05-08T03:39:42.227Z,13.69
2023-05-08T03:42:34.612Z,13.71
2023-05-08T03:45:26.118Z,13.76
2023-05-08T03:48:26.312Z,13.80
2023-05-08T03:51:17.721Z,13.83
2023-05-08T03:54:08.424Z,13.80
2023-05-08T03:56:59.455Z,13.77
2023-05-08T03:59:53.670Z,13.73
2023-05-08T04:02:48.876Z,13.75
2023-05-08T04:05:44.927Z,13.76
2023-05-08T04:08:42.288Z,13.74
2023-05-08T04:11:42.825Z,13.72
2023-05-08T04:14:36.615Z,13.71
2023-05-08T04:17:35.669Z,13.72
2023-05-08T04:20:28.300Z,13.71
2023-05-08T04:23:24.310Z,13.71
2023-05-08T04:26:16.580Z,13.70
2023-05-08T04:29:08.028Z,13.69
2023-05-08T04:31:59.326Z,13.68
2023-05-08T04:34:50.835Z,13.68
2023-05-08T04:37:42.766Z,13.69
2023-05-08T04:40:33.788Z,13.70
2023-05-08T04:43:24.601Z,13.71
2023-05-08T04:46:18.583Z,13.72
2023-05-08T04:49:09.419Z,13.73
2023-05-08T04:52:00.411Z,13.75
2023-05-08T04:54:51.464Z,13.77
2023-05-08T04:57:42.760Z,13.78
2023-05-08T05:00:37.082Z,13.80
2023-05-08T05:03:30.501Z,13.82
2023-05-08T05:06:23.707Z,13.84
2023-05-08T05:09:14.616Z,13.85
2023-05-08T05:12:09.074Z,13.85
2023-05-08T05:15:04.658Z,13.85
2023-05-08T05:17:57.343Z,13.85
2023-05-08T05:20:48.247Z,13.85
2023-05-08T05:23:39.558Z,13.86
2023-05-08T05:26:30.621Z,13.87
2023-05-08T05:29:21.720Z,13.88
2023-05-08T05:32:12.875Z,13.89
2023-05-08T05:35:04.235Z,13.91
2023-05-08T05:37:54.896Z,13.93
2023-05-08T05:40:54.859Z,13.94
2023-05-08T05:43:45.662Z,13.95
2023-05-08T05:46:36.874Z,13.97
2023-05-08T05:49:28.022Z,13.98
2023-05-08T05:52:33.539Z,14.01
2023-05-08T05:55:24.243Z,14.05
2023-05-08T05:58:18.445Z,14.09
2023-05-08T06:01:09.715Z,14.14
2023-05-08T06:04:04.716Z,14.18
2023-05-08T06:06:58.230Z,14.21
2023-05-08T06:09:51.166Z,14.24
2023-05-08T06:12:42.262Z,14.28
2023-05-08T06:15:36.003Z,14.32
2023-05-08T06:18:27.306Z,14.34
2023-05-08T06:21:18.016Z,14.37
2023-05-08T06:24:09.351Z,14.38
2023-05-08T06:27:00.160Z,14.38
2023-05-08T06:29:53.229Z,14.39
2023-05-08T06:32:46.323Z,14.40
2023-05-08T06:35:37.633Z,14.43
2023-05-08T06:38:27.801Z,14.44
2023-05-08T06:41:21.983Z,14.45
2023-05-08T06:44:15.546Z,14.47
2023-05-08T06:47:06.190Z,14.52
2023-05-08T06:49:59.789Z,14.61
2023-05-08T06:52:50.886Z,14.66
2023-05-08T06:55:43.803Z,14.71
2023-05-08T06:58:34.413Z,14.74
2023-05-08T07:01:25.050Z,14.78
2023-05-08T07:04:16.811Z,14.83
2023-05-08T07:07:08.202Z,14.91
2023-05-08T07:09:58.326Z,14.97
2023-05-08T07:12:49.037Z,15.04
2023-05-08T07:15:40.300Z,15.12
2023-05-08T07:18:33.342Z,15.19
2023-05-08T07:21:23.834Z,15.28
2023-05-08T07:24:14.645Z,15.39
2023-05-08T07:27:05.375Z,15.55
2023-05-08T07:29:57.708Z,15.70
2023-05-08T07:32:50.878Z,15.88
2023-05-08T07:35:41.873Z,16.10
2023-05-08T07:38:32.366Z,16.27
2023-05-08T07:41:23.620Z,16.37
2023-05-08T07:44:14.065Z,16.51
2023-05-08T07:47:05.280Z,16.77
2023-05-08T07:49:56.065Z,17.17
2023-05-08T07:52:47.954Z,17.42
2023-05-08T07:55:43.924Z,17.52
2023-05-08T07:58:34.533Z,17.55
2023-05-08T08:01:25.275Z,17.60
2023-05-08T08:04:15.847Z,17.69
2023-05-08T08:07:06.524Z,17.80
2023-05-08T08:09:57.200Z,17.94
2023-05-08T08:12:47.755Z,18.06
2023-05-08T08:15:38.468Z,18.13
2023-05-08T08:18:29.135Z,18.19
2023-05-08T08:21:20.185Z,18.21
2023-05-08T08:24:10.756Z,18.21
2023-05-08T08:27:01.351Z,18.20
2023-05-08T08:29:56.359Z,18.40
2023-05-08T08:32:55.398Z,18.73
2023-05-08T08:35:45.939Z,18.90
2023-05-08T08:38:36.812Z,18.85
2023-05-08T08:41:28.133Z,18.72
2023-05-08T08:44:18.649Z,18.53
2023-05-08T08:47:12.094Z,18.38
2023-05-08T08:50:04.097Z,18.38
2023-05-08T08:52:57.369Z,18.51
2023-05-08T08:55:52.690Z,18.67
2023-05-08T08:58:47.505Z,18.73
2023-05-08T09:01:39.973Z,18.88
2023-05-08T09:04:32.008Z,19.00
2023-05-08T09:07:22.234Z,19.02
2023-05-08T09:10:15.652Z,19.08
2023-05-08T09:13:06.347Z,19.17
2023-05-08T09:15:57.184Z,19.36
2023-05-08T09:18:47.837Z,19.64
2023-05-08T09:21:38.304Z,19.80
2023-05-08T09:24:48.748Z,20.29
2023-05-08T09:27:39.610Z,20.65
2023-05-08T09:30:30.196Z,21.18
2023-05-08T09:33:21.175Z,21.72
2023-05-08T09:36:26.027Z,21.54
2023-05-08T09:39:22.731Z,21.39
2023-05-08T09:42:13.268Z,21.63
2023-05-08T09:45:03.743Z,21.33
2023-05-08T09:47:54.303Z,20.83
2023-05-08T09:50:45.014Z,20.43
2023-05-08T09:53:35.772Z,19.86
2023-05-08T09:56:33.560Z,19.24
2023-05-08T09:59:28.306Z,18.78
2023-05-08T10:02:20.452Z,18.56
2023-05-08T10:05:24.850Z,18.38
2023-05-08T10:08:21.773Z,18.13
2023-05-08T10:11:19.545Z,18.02
2023-05-08T10:14:10.169Z,18.25
2023-05-08T10:17:05.202Z,18.95
2023-05-08T10:19:57.090Z,19.75
2023-05-08T10:22:49.691Z,20.14
2023-05-08T10:25:48.842Z,20.08
2023-05-08T10:28:41.997Z,19.96
2023-05-08T10:31:35.618Z,20.07
2023-05-08T10:34:28.545Z,19.96
2023-05-08T10:37:19.107Z,19.68
2023-05-08T10:40:11.719Z,19.24
2023-05-08T10:43:03.326Z,18.88
2023-05-08T10:45:54.458Z,18.62
2023-05-08T10:48:49.515Z,18.76
2023-05-08T10:51:43.420Z,19.09
2023-05-08T10:54:38.863Z,19.16
2023-05-08T10:57:28.973Z,19.20
2023-05-08T11:00:20.177Z,19.18
2023-05-08T11:03:23.670Z,19.27
2023-05-08T11:06:18.163Z,19.69
2023-05-08T11:09:09.354Z,21.22
2023-05-08T11:12:07.220Z,22.69
2023-05-08T11:15:01.346Z,22.57
2023-05-08T11:17:56.310Z,22.10
2023-05-08T11:20:57.364Z,21.81
2023-05-08T11:23:57.452Z,21.73
2023-05-08T11:26:51.486Z,21.77
2023-05-08T11:29:41.989Z,21.69
2023-05-08T11:32:46.208Z,21.76
2023-05-08T11:35:48.573Z,22.00
2023-05-08T11:38:38.731Z,22.23
2023-05-08T11:41:29.284Z,22.57
2023-05-08T11:44:20.701Z,24.23
2023-05-08T11:47:18.960Z,25.02
2023-05-08T11:50:10.530Z,26.01
2023-05-08T11:53:01.083Z,25.92
2023-05-08T11:55:52.118Z,25.47
2023-05-08T11:58:42.643Z,25.20
2023-05-08T12:01:34.220Z,25.33
2023-05-08T12:04:24.897Z,24.75
2023-05-08T12:07:16.307Z,24.36
2023-05-08T12:10:07.493Z,24.31
2023-05-08T12:12:58.076Z,23.87
2023-05-08T12:15:49.211Z,23.63
2023-05-08T12:18:40.053Z,24.09
2023-05-08T12:21:30.646Z,24.59
2023-05-08T12:24:23.667Z,25.90
2023-05-08T12:27:15.257Z,28.49
2023-05-08T12:30:09.861Z,30.37
2023-05-08T12:33:00.876Z,31.98
2023-05-08T12:35:51.638Z,32.90
2023-05-08T12:38:42.295Z,33.42
2023-05-08T12:41:33.007Z,34.54
2023-05-08T12:44:24.363Z,35.50
2023-05-08T12:47:14.946Z,36.22
2023-05-08T12:50:12.437Z,36.48
2023-05-08T12:53:05.817Z,36.08
2023-05-08T12:55:57.199Z,35.18
2023-05-08T12:58:47.581Z,34.31
2023-05-08T13:01:38.260Z,32.80
2023-05-08T13:04:37.979Z,31.47
2023-05-08T13:07:32.749Z,30.03
2023-05-08T13:10:24.899Z,28.77
2023-05-08T13:13:17.378Z,28.14
2023-05-08T13:16:09.240Z,28.93
2023-05-08T13:18:59.557Z,30.08
2023-05-08T13:21:50.312Z,29.54
2023-05-08T13:24:41.123Z,28.74
2023-05-08T13:27:31.844Z,28.40
2023-05-08T13:30:23.145Z,28.13
2023-05-08T13:33:14.067Z,27.62
2023-05-08T13:36:04.690Z,27.39
2023-05-08T13:38:57.436Z,26.56
2023-05-08T13:41:48.115Z,25.75
2023-05-08T13:44:38.725Z,25.11
2023-05-08T13:47:29.287Z,24.67
2023-05-08T13:50:21.871Z,24.45
2023-05-08T13:53:12.403Z,24.47
2023-05-08T13:56:03.137Z,24.19
2023-05-08T13:58:54.038Z,23.96
2023-05-08T14:01:44.730Z,23.81
2023-05-08T14:04:35.325Z,23.79
2023-05-08T14:07:26.330Z,23.85
2023-05-08T14:10:17.403Z,24.00
2023-05-08T14:13:07.904Z,24.14
2023-05-08T14:15:59.446Z,24.25
2023-05-08T14:18:50.008Z,24.08
2023-05-08T14:21:40.797Z,23.85
2023-05-08T14:24:31.370Z,23.61
2023-05-08T14:27:21.997Z,23.32
2023-05-08T14:30:13.304Z,23.08
2023-05-08T14:33:04.013Z,22.89
2023-05-08T14:35:54.844Z,22.72
2023-05-08T14:38:45.333Z,22.76
2023-05-08T14:41:37.055Z,23.06
2023-05-08T14:44:28.623Z,23.54
2023-05-08T14:47:19.152Z,24.03
2023-05-08T14:50:10.220Z,24.30
2023-05-08T14:53:00.995Z,25.07
2023-05-08T14:55:51.779Z,25.65
2023-05-08T14:58:42.507Z,25.72
2023-05-08T15:01:33.353Z,25.62
2023-05-08T15:04:23.822Z,25.49
2023-05-08T15:07:14.250Z,25.14
2023-05-08T15:10:05.415Z,24.91
2023-05-08T15:12:56.036Z,24.62
2023-05-08T15:15:46.812Z,24.39
2023-05-08T15:18:36.898Z,24.14
2023-05-08T15:21:28.584Z,23.87
2023-05-08T15:24:19.051Z,23.62
2023-05-08T15:27:10.221Z,23.41
2023-05-08T15:30:00.807Z,23.33
2023-05-08T15:32:51.340Z,23.22
2023-05-08T15:35:43.341Z,23.17
2023-05-08T15:38:33.754Z,23.27
2023-05-08T15:41:24.292Z,23.42
2023-05-08T15:44:15.395Z,23.54
2023-05-08T15:47:05.904Z,23.33
2023-05-08T15:49:56.612Z,23.02
2023-05-08T15:52:47.418Z,22.83
2023-05-08T15:55:37.852Z,22.70
2023-05-08T15:58:28.424Z,22.58
2023-05-08T16:01:20.422Z,22.47
2023-05-08T16:04:10.960Z,22.36
2023-05-08T16:07:01.614Z,22.30
2023-05-08T16:09:52.157Z,22.36
2023-05-08T16:12:43.122Z,22.34
2023-05-08T16:15:33.937Z,22.30
2023-05-08T16:18:24.584Z,22.36
2023-05-08T16:21:15.101Z,22.44
2023-05-08T16:24:05.821Z,22.49
2023-05-08T16:26:56.382Z,22.36
2023-05-08T16:29:46.901Z,22.11
2023-05-08T16:32:38.051Z,21.77
2023-05-08T16:35:29.704Z,21.54
2023-05-08T16:38:20.378Z,21.51
2023-05-08T16:41:11.491Z,21.59
2023-05-08T16:44:02.105Z,21.63
2023-05-08T16:46:52.741Z,21.70
2023-05-08T16:49:43.291Z,21.89
2023-05-08T16:52:34.142Z,22.11
2023-05-08T16:55:24.589Z,22.20
2023-05-08T16:58:16.153Z,22.18
2023-05-08T17:01:06.790Z,22.08
2023-05-08T17:03:57.444Z,21.97
2023-05-08T17:06:48.193Z,21.85
2023-05-08T17:09:38.777Z,21.69
2023-05-08T17:12:29.291Z,21.53
2023-05-08T17:15:19.853Z,21.38
2023-05-08T17:18:10.465Z,21.27
2023-05-08T17:21:01.130Z,21.17
2023-05-08T17:23:51.937Z,21.04
2023-05-08T17:26:42.500Z,20.92
2023-05-08T17:29:32.989Z,20.82
2023-05-08T17:32:23.606Z,20.72
2023-05-08T17:35:14.154Z,20.61
2023-05-08T17:38:04.740Z,20.52
2023-05-08T17:40:56.445Z,20.38
2023-05-08T17:43:50.354Z,20.29
2023-05-08T17:46:41.221Z,20.19
2023-05-08T17:49:31.967Z,20.13
2023-05-08T17:52:22.626Z,20.02
2023-05-08T17:55:14.168Z,19.87
2023-05-08T17:58:04.829Z,19.62
2023-05-08T18:00:56.202Z,19.29
2023-05-08T18:03:48.409Z,19.02
2023-05-08T18:06:39.231Z,18.79
2023-05-08T18:09:56.134Z,18.55
2023-05-08T18:12:47.088Z,18.21
2023-05-08T18:15:40.817Z,17.85
2023-05-08T18:18:34.532Z,17.50
2023-05-08T18:21:28.943Z,17.18
2023-05-08T18:24:22.701Z,16.95
2023-05-08T18:27:16.321Z,16.78
2023-05-08T18:30:10.635Z,16.66
2023-05-08T18:33:08.717Z,16.53
2023-05-08T18:36:01.866Z,16.36
2023-05-08T18:38:57.787Z,16.17
2023-05-08T18:41:48.504Z,15.97
2023-05-08T18:44:39.223Z,15.78
2023-05-08T18:47:33.694Z,15.66
2023-05-08T18:50:50.003Z,15.58
2023-05-08T18:53:45.866Z,15.50
2023-05-08T18:56:55.843Z,15.46
2023-05-08T18:59:46.763Z,15.42
2023-05-08T19:02:49.281Z,15.39
2023-05-08T19:05:42.267Z,15.40
2023-05-08T19:23:44.884Z,15.35
2023-05-08T19:39:21.300Z,15.25
2023-05-08T19:42:38.372Z,15.17
2023-05-08T19:57:02.142Z,14.91
2023-05-08T19:59:52.781Z,14.82
2023-05-08T20:06:35.426Z,14.67
2023-05-08T20:09:29.066Z,14.60
2023-05-08T20:12:23.409Z,14.55
2023-05-08T20:15:14.564Z,14.52
2023-05-08T20:18:15.947Z,14.47
2023-05-08T20:21:09.641Z,14.42
2023-05-08T20:24:05.336Z,14.35
2023-05-08T20:26:58.894Z,14.30
2023-05-08T20:29:54.577Z,14.27
2023-05-08T20:32:45.201Z,14.24
2023-05-08T20:35:39.774Z,14.21
2023-05-08T20:38:33.962Z,14.21
2023-05-08T20:41:27.731Z,14.20
2023-05-08T20:44:21.916Z,14.19
2023-05-08T20:47:12.692Z,14.19
2023-05-08T20:50:03.541Z,14.18
2023-05-08T20:52:54.327Z,14.19
2023-05-08T20:55:46.338Z,14.19
2023-05-08T20:58:39.398Z,14.19
2023-05-08T21:01:30.272Z,14.18
2023-05-08T21:04:21.244Z,14.18
2023-05-08T21:07:21.910Z,14.17
2023-05-08T21:10:16.790Z,14.15
2023-05-08T21:13:07.592Z,14.11
2023-05-08T21:15:58.321Z,14.06
2023-05-08T21:18:58.437Z,14.01
2023-05-08T21:21:49.272Z,13.98
2023-05-08T21:24:45.436Z,13.95
2023-05-08T21:27:39.514Z,13.93
2023-05-08T21:30:30.742Z,13.90
2023-05-08T21:33:21.939Z,13.88
2023-05-08T21:36:15.264Z,13.86
2023-05-08T21:39:08.911Z,13.85
2023-05-08T21:42:03.403Z,13.84
2023-05-08T21:45:00.651Z,13.82
2023-05-08T21:47:57.327Z,13.81
2023-05-08T21:50:49.605Z,13.79
2023-05-08T21:53:42.243Z,13.77
2023-05-08T21:56:38.117Z,13.77
2023-05-08T21:59:29.113Z,13.76
2023-05-08T22:02:29.256Z,13.76
2023-05-08T22:05:20.522Z,13.74
2023-05-08T22:08:14.443Z,13.72
2023-05-08T22:11:08.873Z,13.69
2023-05-08T22:14:04.721Z,13.67
2023-05-08T22:17:14.544Z,13.64
2023-05-08T22:20:10.529Z,13.61
2023-05-08T22:23:01.378Z,13.58
2023-05-08T22:25:52.949Z,13.55
2023-05-08T22:28:48.332Z,13.52
2023-05-08T22:31:42.313Z,13.49
2023-05-08T22:34:53.383Z,13.44
2023-05-08T22:37:46.774Z,13.42
2023-05-08T22:40:37.660Z,13.39
2023-05-08T22:43:29.052Z,13.34
2023-05-08T22:46:23.491Z,13.32
2023-05-08T22:49:18.211Z,13.28
2023-05-08T22:52:08.931Z,13.25
2023-05-08T22:54:59.697Z,13.21
2023-05-08T22:57:53.602Z,13.16
2023-05-08T23:00:46.991Z,13.11
2023-05-08T23:03:49.186Z,13.06
2023-05-08T23:06:48.890Z,13.02
2023-05-08T23:09:42.816Z,12.98
2023-05-08T23:12:33.608Z,12.95
2023-05-08T23:15:26.639Z,12.91
2023-05-08T23:18:26.308Z,12.88
2023-05-08T23:21:19.399Z,12.85
2023-05-08T23:24:15.777Z,12.82
2023-05-08T23:27:09.597Z,12.78
2023-05-08T23:30:06.464Z,12.75
2023-05-08T23:33:02.116Z,12.70
2023-05-08T23:35:53.018Z,12.67
2023-05-08T23:38:43.757Z,12.63
2023-05-08T23:41:41.986Z,12.61
2023-05-08T23:44:38.229Z,12.58
2023-05-08T23:47:31.506Z,12.52
2023-05-08T23:50:22.521Z,12.47
2023-05-08T23:53:13.137Z,12.42
2023-05-08T23:56:09.289Z,12.36
2023-05-08T23:59:05.393Z,12.33
